createdAt,value
2019-03-22T06:34:21.204Z,46.23
2019-03-22T06:36:51.023Z,24.20
2019-03-22T06:39:20.378Z,36.87
2019-03-22T06:41:50.097Z,27.50
2019-03-22T06:44:19.709Z,28.03
2019-03-22T06:46:49.309Z,30.97
2019-03-22T06:49:18.995Z,30.37
2019-03-22T06:51:49.094Z,32.90
2019-03-22T06:54:30.749Z,35.43
2019-03-22T06:56:51.629Z,33.40
2019-03-22T06:59:21.618Z,34.70
2019-03-22T07:01:51.328Z,44.23
2019-03-22T07:04:20.718Z,44.33
2019-03-22T07:06:50.493Z,24.93
2019-03-22T07:09:20.189Z,28.63
2019-03-22T07:11:49.833Z,28.20
2019-03-22T07:14:19.102Z,34.50
2019-03-22T07:16:48.941Z,32.23
2019-03-22T07:19:19.223Z,36.30
2019-03-22T07:21:49.178Z,41.33
2019-03-22T07:24:20.497Z,28.57
2019-03-22T07:26:49.908Z,23.60
2019-03-22T07:29:20.053Z,27.30
2019-03-22T07:31:49.871Z,36.63
2019-03-22T07:34:19.555Z,24.50
2019-03-22T07:36:49.506Z,20.07
2019-03-22T07:39:19.171Z,43.20
2019-03-22T07:41:48.857Z,19.00
2019-03-22T07:44:18.713Z,29.83
2019-03-22T07:46:48.501Z,16.27
2019-03-22T07:49:19.058Z,22.03
2019-03-22T07:51:48.409Z,17.13
2019-03-22T07:54:18.164Z,18.33
2019-03-22T07:56:47.452Z,23.60
2019-03-22T07:59:17.673Z,18.60
2019-03-22T08:01:47.272Z,22.50
2019-03-22T08:04:17.602Z,20.30
2019-03-22T08:06:47.706Z,20.17
2019-03-22T08:09:17.466Z,25.20
2019-03-22T08:11:46.752Z,24.37
2019-03-22T08:14:16.610Z,22.63
2019-03-22T08:16:46.081Z,17.30
2019-03-22T08:19:15.684Z,16.23
2019-03-22T08:21:46.243Z,17.90
2019-03-22T08:24:15.540Z,19.17
2019-03-22T08:26:46.037Z,25.40
2019-03-22T08:29:15.772Z,34.80
2019-03-22T08:31:45.328Z,17.20
2019-03-22T08:34:15.181Z,19.17
2019-03-22T08:36:44.749Z,18.90
2019-03-22T08:39:14.352Z,19.63
2019-03-22T08:41:44.155Z,15.90
2019-03-22T08:44:13.893Z,25.77
2019-03-22T08:46:44.941Z,19.40
2019-03-22T08:49:14.523Z,26.70
2019-03-22T08:51:44.123Z,18.13
2019-03-22T08:54:14.008Z,17.30
2019-03-22T08:56:43.634Z,12.60
2019-03-22T08:59:13.534Z,15.13
2019-03-22T09:01:43.032Z,15.07
2019-03-22T09:04:13.520Z,16.90
2019-03-22T09:06:43.837Z,19.90
2019-03-22T09:09:14.226Z,21.13
2019-03-22T09:11:43.714Z,11.23
2019-03-22T09:14:13.791Z,16.30
2019-03-22T09:16:43.030Z,18.70
2019-03-22T09:19:13.439Z,13.20
2019-03-22T09:21:43.053Z,18.30
2019-03-22T09:24:13.309Z,14.67
2019-03-22T09:26:47.430Z,10.93
2019-03-22T09:29:13.791Z,11.63
2019-03-22T09:31:43.035Z,32.60
2019-03-22T09:34:12.874Z,13.83
2019-03-22T09:36:43.150Z,29.53
2019-03-22T09:39:12.707Z,12.93
2019-03-22T09:41:42.222Z,18.03
2019-03-22T09:44:11.831Z,16.60
2019-03-22T09:46:41.340Z,14.10
2019-03-22T09:49:10.603Z,20.23
2019-03-22T09:51:40.179Z,17.70
2019-03-22T09:54:09.744Z,8.43
2019-03-22T09:56:47.059Z,17.37
2019-03-22T09:59:10.854Z,22.07
2019-03-22T10:01:40.390Z,14.77
2019-03-22T10:04:10.271Z,13.53
2019-03-22T10:06:40.211Z,14.97
2019-03-22T10:09:10.047Z,13.57
2019-03-22T10:11:39.646Z,12.20
2019-03-22T10:14:09.404Z,15.37
2019-03-22T10:16:38.729Z,14.53
2019-03-22T10:19:12.030Z,11.60
2019-03-22T10:21:41.295Z,17.10
2019-03-22T10:24:11.001Z,13.60
2019-03-22T10:26:40.663Z,14.93
2019-03-22T10:29:10.266Z,14.10
2019-03-22T10:31:39.891Z,12.03
2019-03-22T10:34:09.868Z,21.33
2019-03-22T10:36:39.673Z,14.13
2019-03-22T10:39:09.763Z,15.33
2019-03-22T10:41:39.422Z,17.53
2019-03-22T10:44:09.692Z,17.00
2019-03-22T10:46:39.070Z,15.60
2019-03-22T10:49:08.514Z,12.10
2019-03-22T10:51:38.370Z,16.13
2019-03-22T10:54:08.117Z,19.93
2019-03-22T10:56:38.191Z,14.93
2019-03-22T10:59:07.752Z,23.67
2019-03-22T11:01:48.312Z,25.33
2019-03-22T11:06:38.998Z,24.43
2019-03-22T11:09:09.273Z,17.63
2019-03-22T11:11:39.100Z,22.90
2019-03-22T11:14:08.970Z,33.20
2019-03-22T11:16:38.534Z,16.40
2019-03-22T11:19:07.820Z,33.73
2019-03-22T11:21:37.161Z,18.53
2019-03-22T11:24:07.503Z,14.40
2019-03-22T11:26:37.224Z,18.43
2019-03-22T11:29:06.823Z,25.40
2019-03-22T11:31:40.157Z,15.03
2019-03-22T11:34:08.096Z,15.13
2019-03-22T11:36:37.511Z,17.83
2019-03-22T11:39:15.512Z,26.20
2019-03-22T11:41:41.580Z,18.40
2019-03-22T11:44:11.279Z,20.03
2019-03-22T11:46:41.228Z,15.07
2019-03-22T11:49:10.897Z,16.20
2019-03-22T11:51:40.681Z,16.73
2019-03-22T11:54:09.991Z,21.30
2019-03-22T11:56:39.618Z,26.73
2019-03-22T11:59:10.359Z,21.50
2019-03-22T12:01:39.670Z,22.90
2019-03-22T12:04:11.860Z,17.23
2019-03-22T12:06:41.205Z,18.90
2019-03-22T12:09:10.727Z,32.43
2019-03-22T12:11:42.183Z,20.13
2019-03-22T12:14:12.061Z,23.60
2019-03-22T12:16:41.633Z,20.80
2019-03-22T12:19:11.713Z,21.30
2019-03-22T12:21:40.989Z,19.73
2019-03-22T12:24:11.146Z,24.83
2019-03-22T12:26:41.500Z,25.83
2019-03-22T12:29:11.174Z,20.00
2019-03-22T12:31:41.729Z,28.73
2019-03-22T15:56:41.744Z,19.20
2019-03-22T15:59:11.381Z,21.03
2019-03-22T16:01:41.523Z,24.97
2019-03-22T16:04:14.219Z,17.23
2019-03-22T16:06:46.927Z,22.00
2019-03-22T16:09:17.289Z,29.83
2019-03-22T16:11:56.575Z,24.83
2019-03-22T16:14:48.426Z,16.70
2019-03-22T16:17:19.428Z,27.57
2019-03-22T16:19:49.069Z,24.10
2019-03-22T16:22:18.938Z,23.40
2019-03-22T16:24:48.917Z,20.67
2019-03-22T16:27:18.525Z,19.87
2019-03-22T16:29:48.974Z,29.77
2019-03-22T16:32:18.812Z,20.90
2019-03-22T16:34:48.859Z,47.37
2019-03-22T16:37:19.473Z,22.00
2019-03-22T16:39:49.751Z,20.83
2019-03-22T16:42:20.021Z,23.33
2019-03-22T16:44:49.745Z,40.67
2019-03-22T16:47:20.002Z,26.90
2019-03-22T16:49:50.866Z,25.33
2019-03-22T16:52:21.832Z,19.67
2019-03-22T16:54:51.811Z,21.70
2019-03-22T16:57:22.203Z,27.07
2019-03-22T16:59:53.079Z,21.63
2019-03-22T17:02:25.814Z,34.87
2019-03-22T17:04:55.989Z,25.67
2019-03-22T17:07:25.775Z,19.73
2019-03-22T17:09:55.714Z,21.60
2019-03-22T17:12:26.771Z,27.70
2019-03-22T17:14:56.464Z,20.57
2019-03-22T17:17:32.254Z,20.47
2019-03-22T17:20:03.901Z,21.70
2019-03-22T17:22:45.918Z,22.17
2019-03-22T17:25:18.193Z,20.87
2019-03-22T17:27:48.397Z,22.90
2019-03-22T17:30:19.860Z,31.20
2019-03-22T17:32:55.823Z,24.70
2019-03-22T17:35:27.002Z,35.33
2019-03-22T17:37:59.591Z,22.20
2019-03-22T17:40:33.068Z,47.03
2019-03-22T17:43:03.052Z,19.83
2019-03-22T17:45:35.597Z,25.17
2019-03-22T17:48:06.125Z,21.20
2019-03-22T17:51:01.852Z,47.20
2019-03-22T17:53:41.571Z,23.13
2019-03-22T17:56:13.471Z,36.00
2019-03-22T17:58:42.944Z,25.13
2019-03-22T18:01:13.944Z,19.50
2019-03-22T18:03:48.338Z,21.77
2019-03-22T18:06:18.962Z,23.67
2019-03-22T18:08:50.614Z,24.10
2019-03-22T18:11:29.014Z,23.73
2019-03-22T18:14:01.127Z,27.07
2019-03-22T18:16:48.226Z,30.17
2019-03-22T18:19:26.965Z,22.13
2019-03-22T18:22:08.063Z,29.00
2019-03-22T18:24:40.806Z,32.20
2019-03-22T18:27:11.284Z,37.87
2019-03-22T18:32:55.862Z,27.70
2019-03-22T18:35:26.886Z,32.60
2019-03-22T18:37:57.978Z,32.60
2019-03-22T18:40:27.827Z,32.47
2019-03-22T18:42:57.939Z,32.77
2019-03-22T18:45:27.776Z,30.67
2019-03-22T18:47:59.744Z,34.00
2019-03-22T18:50:29.534Z,24.77
2019-03-22T18:52:59.205Z,28.10
2019-03-22T18:55:32.567Z,40.13
2019-03-22T18:58:03.105Z,44.10
2019-03-22T19:00:32.858Z,38.00
2019-03-22T19:03:03.027Z,37.90
2019-03-22T19:05:32.582Z,37.53
2019-03-22T19:08:02.108Z,44.83
2019-03-22T19:10:34.131Z,38.77
2019-03-22T19:13:04.661Z,37.13
2019-03-22T19:15:33.988Z,39.30
2019-03-22T19:18:03.706Z,42.07
2019-03-22T19:20:33.346Z,39.30
2019-03-22T19:23:03.727Z,36.27
2019-03-22T19:25:33.459Z,44.70
2019-03-22T19:28:02.927Z,36.43
2019-03-22T19:30:32.546Z,42.90
2019-03-22T19:33:02.275Z,33.40
2019-03-22T19:35:32.607Z,37.37
2019-03-22T19:38:01.976Z,42.70
2019-03-22T19:40:32.216Z,50.07
2019-03-22T19:43:02.033Z,44.43
2019-03-22T19:45:32.080Z,32.10
2019-03-22T19:48:02.178Z,36.97
2019-03-22T19:50:31.665Z,31.43
2019-03-22T19:53:01.706Z,41.30
2019-03-22T19:55:31.557Z,30.60
2019-03-22T19:58:01.578Z,44.07
2019-03-22T20:00:30.975Z,33.70
2019-03-22T20:03:12.006Z,43.33
2019-03-22T20:05:41.297Z,39.90
2019-03-22T20:08:13.732Z,38.10
2019-03-22T20:10:43.286Z,51.87
2019-03-22T20:13:13.383Z,37.07
2019-03-22T20:15:48.302Z,32.70
2019-03-22T20:18:22.581Z,44.43
2019-03-22T20:20:55.180Z,52.50
2019-03-22T20:23:28.199Z,55.20
2019-03-22T20:25:59.434Z,46.00
2019-03-22T20:28:30.260Z,30.73
2019-03-22T20:31:01.675Z,38.13
2019-03-22T20:33:31.916Z,48.43
2019-03-22T20:36:01.315Z,35.20
2019-03-22T20:38:30.892Z,36.07
2019-03-22T20:41:00.565Z,39.00
2019-03-22T20:43:31.237Z,46.17
2019-03-22T20:46:01.008Z,35.73
2019-03-22T20:48:30.428Z,36.67
2019-03-22T20:51:00.344Z,32.20
2019-03-22T20:53:30.879Z,37.43
2019-03-22T20:56:01.193Z,37.23
2019-03-22T20:58:30.809Z,43.77
2019-03-22T21:01:02.176Z,28.57
2019-03-22T21:03:31.788Z,34.30
2019-03-22T21:06:04.396Z,35.90
2019-03-22T21:08:33.215Z,38.13
2019-03-22T21:11:02.854Z,31.10
2019-03-22T21:13:33.075Z,38.17
2019-03-22T21:16:03.362Z,31.93
2019-03-22T21:18:35.085Z,33.17
2019-03-22T21:21:04.411Z,31.23
2019-03-22T21:23:36.653Z,38.87
2019-03-22T21:26:06.548Z,33.87
2019-03-22T21:28:37.131Z,45.23
2019-03-22T21:31:07.139Z,29.67
2019-03-22T21:33:36.445Z,35.63
2019-03-22T21:36:05.786Z,31.60
2019-03-22T21:38:36.144Z,29.07
2019-03-22T21:41:06.487Z,30.97
2019-03-22T21:43:36.255Z,36.10
2019-03-22T21:46:05.855Z,36.53
2019-03-22T21:48:35.457Z,30.23
2019-03-22T21:51:05.003Z,28.83
2019-03-22T21:53:34.837Z,40.43
2019-03-22T21:56:05.228Z,32.33
2019-03-22T21:58:35.261Z,35.43
2019-03-22T22:01:04.483Z,33.17
2019-03-22T22:03:34.051Z,26.60
2019-03-22T22:06:03.561Z,31.00
2019-03-22T22:08:33.081Z,36.60
2019-03-22T22:11:02.421Z,28.60
2019-03-22T22:13:32.742Z,29.27
2019-03-22T22:16:03.120Z,27.03
2019-03-22T22:18:32.415Z,37.27
2019-03-22T22:21:01.980Z,27.43
2019-03-22T22:23:32.123Z,26.53
2019-03-22T22:26:02.048Z,35.40
2019-03-22T22:28:32.230Z,25.00
2019-03-22T22:31:01.883Z,30.50
2019-03-22T22:33:31.329Z,26.40
2019-03-22T22:36:00.541Z,27.63
2019-03-22T22:38:30.136Z,23.23
2019-03-22T22:40:59.595Z,22.87
2019-03-22T22:43:28.673Z,25.77
2019-03-22T22:45:59.132Z,25.40
2019-03-22T22:48:28.344Z,39.03
2019-03-22T22:50:57.903Z,38.80
2019-03-22T22:53:27.517Z,25.30
2019-03-22T22:55:57.179Z,28.53
2019-03-22T22:58:28.571Z,28.07
2019-03-22T23:00:58.167Z,26.13
2019-03-22T23:03:27.841Z,38.53
2019-03-22T23:05:57.393Z,35.90
2019-03-22T23:08:26.901Z,27.20
2019-03-22T23:10:56.415Z,26.30
2019-03-22T23:13:26.277Z,28.40
2019-03-22T23:15:55.577Z,34.43
2019-03-22T23:18:25.274Z,25.00
2019-03-22T23:20:54.841Z,31.37
2019-03-22T23:23:24.332Z,37.30
2019-03-22T23:25:54.326Z,30.23
2019-03-22T23:28:23.854Z,24.00
2019-03-22T23:30:53.110Z,31.47
2019-03-22T23:33:22.573Z,29.53
2019-03-22T23:35:52.405Z,28.23
2019-03-22T23:38:21.586Z,28.00
2019-03-22T23:40:52.081Z,28.63
2019-03-22T23:43:21.563Z,28.15
2019-03-22T23:45:51.428Z,24.27
2019-03-22T23:48:22.529Z,31.07
2019-03-22T23:50:52.277Z,27.20
2019-03-22T23:53:22.920Z,25.17
2019-03-22T23:55:52.448Z,27.17
2019-03-22T23:58:22.245Z,28.80
